Time;durP1;ratioP1;P1;durP2;ratioP2;P2;SDS_P1;SDS_P2;PMS_P1;PMS_P2;Temp;Humidity;BMP_temperature;BMP_pressure;BME280_temperature;BME280_humidity;BME280_pressure;Samples;Min_cycle;Max_cycle;Signal;HPM_P1;HPM_P2
2023/03/11 00:01:52;;;;;;;1.85;1.75;;;0.60;99.90;;;;;;477035;247;27443;-77
2023/03/11 00:03:54;;;;;;;2.78;1.58;;;0.60;99.90;;;;;;477012;247;27355;-77
2023/03/11 00:05:57;;;;;;;5.55;2.08;;;0.60;99.90;;;;;;477035;247;27355;-78
2023/03/11 00:07:58;;;;;;;2.47;1.70;;;0.50;99.90;;;;;;476966;247;29067;-77
2023/03/11 00:09:59;;;;;;;3.97;1.75;;;0.50;99.90;;;;;;476991;247;27778;-76
2023/03/11 00:12:01;;;;;;;1.70;1.60;;;0.50;99.90;;;;;;476880;249;27458;-76
2023/03/11 00:14:02;;;;;;;3.65;1.83;;;0.50;99.90;;;;;;477017;247;27304;-77
2023/03/11 00:16:03;;;;;;;4.30;1.90;;;0.40;99.90;;;;;;477003;247;27390;-77
2023/03/11 00:18:04;;;;;;;3.17;1.50;;;0.40;99.90;;;;;;477022;247;27389;-77
2023/03/11 00:20:06;;;;;;;4.30;1.45;;;0.40;99.90;;;;;;477047;247;27387;-77
2023/03/11 00:22:07;;;;;;;3.70;2.10;;;0.30;99.90;;;;;;476986;247;27381;-77
2023/03/11 00:24:08;;;;;;;2.47;1.90;;;0.30;99.90;;;;;;477002;247;27454;-77
2023/03/11 00:26:09;;;;;;;3.55;1.70;;;0.30;99.90;;;;;;476986;247;27379;-77
2023/03/11 00:28:11;;;;;;;3.55;1.90;;;0.30;99.90;;;;;;477019;247;27379;-76
2023/03/11 00:30:12;;;;;;;3.05;1.52;;;0.30;99.90;;;;;;476836;249;27394;-76
2023/03/11 00:32:13;;;;;;;3.70;2.20;;;0.30;99.90;;;;;;477009;247;27880;-76
2023/03/11 00:34:14;;;;;;;7.37;1.90;;;0.30;99.90;;;;;;477029;247;28069;-76
2023/03/11 00:36:16;;;;;;;2.60;2.40;;;0.30;99.90;;;;;;476980;247;27964;-77
2023/03/11 00:38:17;;;;;;;3.87;1.52;;;0.30;99.90;;;;;;477016;247;27429;-77
2023/03/11 00:40:18;;;;;;;3.62;1.83;;;0.30;99.90;;;;;;477006;247;27438;-77
2023/03/11 00:42:21;;;;;;;4.60;1.60;;;0.20;99.90;;;;;;477023;247;27499;-76
2023/03/11 00:44:22;;;;;;;5.53;1.70;;;0.20;99.90;;;;;;477017;247;27827;-75
2023/03/11 00:46:23;;;;;;;4.80;1.80;;;0.20;99.90;;;;;;477044;247;27820;-76
2023/03/11 00:48:25;;;;;;;2.35;1.92;;;0.20;99.90;;;;;;477029;247;27438;-77
2023/03/11 00:50:26;;;;;;;2.62;1.60;;;0.30;99.90;;;;;;477006;247;27348;-77
2023/03/11 00:52:27;;;;;;;4.87;1.77;;;0.20;99.90;;;;;;476887;247;27395;-76
2023/03/11 00:54:28;;;;;;;4.28;1.58;;;0.20;99.90;;;;;;476948;247;27371;-77
2023/03/11 00:56:30;;;;;;;4.82;1.90;;;0.20;99.90;;;;;;476952;249;27347;-78
2023/03/11 00:58:32;;;;;;;5.80;2.15;;;0.20;99.90;;;;;;477037;247;27325;-76
2023/03/11 01:00:32;;;;;;;1.77;1.62;;;0.10;99.90;;;;;;477004;247;27973;-77
2023/03/11 01:02:33;;;;;;;2.03;1.77;;;0.10;99.90;;;;;;477029;247;28528;-76
2023/03/11 01:04:35;;;;;;;2.70;2.10;;;0.10;99.90;;;;;;477029;247;27857;-76
2023/03/11 01:06:36;;;;;;;2.22;1.80;;;0.00;99.90;;;;;;477058;247;28012;-76
2023/03/11 01:08:37;;;;;;;3.65;1.90;;;0.00;99.90;;;;;;476888;249;27306;-77
2023/03/11 01:10:38;;;;;;;6.20;2.03;;;0.00;99.90;;;;;;477017;247;27480;-77
2023/03/11 01:12:40;;;;;;;2.95;1.70;;;0.00;99.90;;;;;;476822;249;27387;-76
2023/03/11 01:14:41;;;;;;;7.57;2.20;;;0.00;99.90;;;;;;477054;247;27321;-77
2023/03/11 01:16:42;;;;;;;3.90;1.65;;;0.00;99.90;;;;;;477074;247;27831;-77
2023/03/11 01:18:44;;;;;;;2.62;1.70;;;-0.10;99.90;;;;;;477063;247;27378;-77
2023/03/11 01:20:45;;;;;;;3.17;1.50;;;-0.10;99.90;;;;;;477050;247;27795;-77
2023/03/11 01:22:46;;;;;;;3.72;1.75;;;-0.10;99.90;;;;;;476792;249;28917;-79
2023/03/11 01:24:47;;;;;;;4.47;1.80;;;0.00;99.90;;;;;;476995;247;27380;-77
2023/03/11 01:26:49;;;;;;;6.80;2.15;;;-0.10;99.90;;;;;;477013;247;27422;-77
2023/03/11 01:28:50;;;;;;;3.15;1.60;;;-0.10;99.90;;;;;;476999;247;27387;-77
2023/03/11 01:30:52;;;;;;;2.30;1.70;;;-0.10;99.90;;;;;;477028;247;27348;-77
2023/03/11 01:32:53;;;;;;;8.75;1.92;;;-0.10;99.90;;;;;;476971;247;27363;-77
2023/03/11 01:34:55;;;;;;;8.70;1.90;;;-0.20;99.90;;;;;;477032;247;27359;-78
2023/03/11 01:36:56;;;;;;;9.05;2.08;;;-0.20;99.90;;;;;;477010;247;27788;-77
2023/03/11 01:38:57;;;;;;;2.83;1.90;;;-0.20;99.90;;;;;;477004;247;29006;-76
2023/03/11 01:40:58;;;;;;;4.62;1.85;;;-0.20;99.90;;;;;;476986;247;27303;-75
2023/03/11 01:43:00;;;;;;;5.18;1.80;;;-0.20;99.90;;;;;;477043;247;27399;-76
2023/03/11 01:45:01;;;;;;;3.33;1.65;;;-0.20;99.90;;;;;;477034;247;27375;-77
2023/03/11 01:47:02;;;;;;;5.00;1.73;;;-0.20;99.90;;;;;;476989;249;27403;-77
2023/03/11 01:49:03;;;;;;;3.20;1.85;;;-0.20;99.90;;;;;;476996;247;27434;-77
2023/03/11 01:51:05;;;;;;;11.23;2.10;;;-0.20;99.90;;;;;;476855;249;27531;-76
2023/03/11 01:53:06;;;;;;;3.47;2.08;;;-0.20;99.90;;;;;;476991;247;27363;-77
2023/03/11 01:55:07;;;;;;;5.32;2.20;;;-0.30;99.90;;;;;;477008;247;27917;-76
2023/03/11 01:57:08;;;;;;;4.80;2.00;;;-0.30;99.90;;;;;;477007;247;27749;-77
2023/03/11 01:59:10;;;;;;;4.62;1.98;;;-0.30;99.90;;;;;;477033;247;27868;-77
2023/03/11 02:01:11;;;;;;;2.17;1.90;;;-0.30;99.90;;;;;;476999;247;27376;-76
2023/03/11 02:03:12;;;;;;;6.75;2.00;;;-0.40;99.90;;;;;;477021;247;27350;-77
2023/03/11 02:05:13;;;;;;;7.72;1.92;;;-0.40;99.90;;;;;;477018;247;27443;-77
2023/03/11 02:07:15;;;;;;;1.90;1.80;;;-0.40;99.90;;;;;;477047;247;27359;-76
2023/03/11 02:09:16;;;;;;;2.87;1.85;;;-0.40;99.90;;;;;;477015;247;27367;-77
2023/03/11 02:11:18;;;;;;;5.15;2.15;;;-0.40;99.90;;;;;;476946;247;27842;-78
2023/03/11 02:13:19;;;;;;;3.28;1.73;;;-0.40;99.90;;;;;;476987;247;27867;-76
2023/03/11 02:15:20;;;;;;;3.50;1.95;;;-0.30;99.90;;;;;;476995;247;27983;-77
2023/03/11 02:17:21;;;;;;;2.40;1.80;;;-0.40;99.90;;;;;;476986;247;27296;-77
2023/03/11 02:19:23;;;;;;;4.55;2.25;;;-0.40;99.90;;;;;;477020;247;27319;-77
2023/03/11 02:21:25;;;;;;;5.65;1.67;;;-0.40;99.90;;;;;;477037;247;27351;-77
2023/03/11 02:23:25;;;;;;;3.65;2.30;;;-0.40;99.90;;;;;;476948;247;27311;-77
2023/03/11 02:25:26;;;;;;;4.47;2.22;;;-0.40;99.90;;;;;;476998;247;27498;-75
2023/03/11 02:27:28;;;;;;;2.47;1.80;;;-0.40;99.90;;;;;;476987;249;27399;-76
2023/03/11 02:29:29;;;;;;;2.92;2.00;;;-0.50;99.90;;;;;;477022;247;27487;-77
2023/03/11 02:31:30;;;;;;;6.70;2.15;;;-0.50;99.90;;;;;;476905;249;27831;-77
2023/03/11 02:33:31;;;;;;;3.45;1.85;;;-0.50;99.90;;;;;;477062;247;27777;-77
2023/03/11 02:35:33;;;;;;;3.35;2.10;;;-0.50;99.90;;;;;;477031;247;27953;-77
2023/03/11 02:37:34;;;;;;;5.80;1.85;;;-0.50;99.90;;;;;;476996;247;27314;-77
2023/03/11 02:39:35;;;;;;;3.75;2.00;;;-0.50;99.90;;;;;;477006;246;27430;-77
2023/03/11 02:41:36;;;;;;;2.22;2.00;;;-0.50;99.90;;;;;;477013;247;27354;-76
2023/03/11 02:43:38;;;;;;;6.68;1.90;;;-0.50;99.90;;;;;;477041;247;27319;-77
2023/03/11 02:45:40;;;;;;;3.17;2.00;;;-0.50;99.90;;;;;;477054;247;27883;-77
2023/03/11 02:47:41;;;;;;;2.42;1.80;;;-0.60;99.90;;;;;;477055;247;27904;-75
2023/03/11 02:49:42;;;;;;;3.33;1.75;;;-0.60;99.90;;;;;;476852;249;27390;-76
2023/03/11 02:51:43;;;;;;;4.93;1.90;;;-0.60;99.90;;;;;;476991;247;27378;-77
2023/03/11 02:53:45;;;;;;;1.80;1.70;;;-0.60;99.90;;;;;;477016;247;27378;-77
2023/03/11 02:55:46;;;;;;;2.97;1.90;;;-0.70;99.90;;;;;;476989;247;27387;-77
2023/03/11 02:57:47;;;;;;;5.72;1.80;;;-0.70;99.90;;;;;;476991;247;27469;-77
2023/03/11 02:59:48;;;;;;;3.55;1.90;;;-0.70;99.90;;;;;;476799;249;27407;-76
2023/03/11 03:01:50;;;;;;;5.12;1.85;;;-0.70;99.90;;;;;;476941;247;27470;-76
2023/03/11 03:03:51;;;;;;;4.20;2.33;;;-0.70;99.90;;;;;;476901;247;28564;-77
2023/03/11 03:05:52;;;;;;;6.37;2.20;;;-0.70;99.90;;;;;;476683;249;27787;-77
2023/03/11 03:07:53;;;;;;;2.55;1.70;;;-0.70;99.90;;;;;;476954;247;27884;-78
2023/03/11 03:09:55;;;;;;;4.53;2.00;;;-0.70;99.90;;;;;;476797;249;27454;-77
2023/03/11 03:11:56;;;;;;;3.40;2.45;;;-0.70;99.90;;;;;;476929;247;27445;-77
2023/03/11 03:13:57;;;;;;;7.50;2.45;;;-0.70;99.90;;;;;;476953;247;27407;-77
2023/03/11 03:15:58;;;;;;;13.25;2.05;;;-0.80;99.90;;;;;;476996;247;27342;-77
2023/03/11 03:18:00;;;;;;;5.87;2.10;;;-0.80;99.90;;;;;;477024;247;27458;-77
2023/03/11 03:20:04;;;;;;;3.90;1.70;;;-0.80;99.90;;;;;;477002;247;27418;-77
2023/03/11 03:22:02;;;;;;;3.62;2.00;;;-0.80;99.90;;;;;;476797;249;27347;-77
2023/03/11 03:24:04;;;;;;;4.57;2.20;;;-0.80;99.90;;;;;;477030;247;27867;-77
2023/03/11 03:26:05;;;;;;;3.35;2.20;;;-0.80;99.90;;;;;;476992;247;27938;-77
2023/03/11 03:28:06;;;;;;;5.25;2.35;;;-0.80;99.90;;;;;;476993;247;27836;-77
2023/03/11 03:30:07;;;;;;;3.30;1.95;;;-0.80;99.90;;;;;;476970;247;27315;-77
2023/03/11 03:32:09;;;;;;;2.08;1.80;;;-0.80;99.90;;;;;;476973;249;27375;-77
2023/03/11 03:34:10;;;;;;;4.10;2.00;;;-0.80;99.90;;;;;;477001;247;27354;-77
2023/03/11 03:36:11;;;;;;;2.08;1.92;;;-0.90;99.90;;;;;;477019;247;27300;-77
2023/03/11 03:38:12;;;;;;;4.75;2.05;;;-0.90;99.90;;;;;;477018;247;27406;-77
2023/03/11 03:40:14;;;;;;;4.43;1.95;;;-0.90;99.90;;;;;;476959;247;27773;-77
2023/03/11 03:42:15;;;;;;;2.47;1.70;;;-0.90;99.90;;;;;;476977;247;27443;-77
2023/03/11 03:44:17;;;;;;;6.25;2.00;;;-0.90;99.90;;;;;;477008;247;27906;-76
2023/03/11 03:46:17;;;;;;;4.90;2.35;;;-1.00;99.90;;;;;;476925;247;27962;-77
2023/03/11 03:48:19;;;;;;;2.72;2.37;;;-1.00;99.90;;;;;;476996;247;28956;-77
2023/03/11 03:50:20;;;;;;;6.07;2.40;;;-1.00;99.90;;;;;;477000;247;27375;-77
2023/03/11 03:52:21;;;;;;;5.70;2.17;;;-1.00;99.90;;;;;;476949;247;27375;-77
2023/03/11 03:54:22;;;;;;;5.78;2.00;;;-1.00;99.90;;;;;;476968;247;27443;-76
2023/03/11 03:56:24;;;;;;;5.00;1.95;;;-1.00;99.90;;;;;;477015;247;27323;-76
2023/03/11 03:58:25;;;;;;;3.65;2.55;;;-1.00;99.90;;;;;;477044;247;27481;-75
2023/03/11 04:00:26;;;;;;;3.17;2.37;;;-1.00;99.90;;;;;;477023;247;27320;-78
2023/03/11 04:02:28;;;;;;;3.47;1.90;;;-1.00;99.90;;;;;;477044;247;27481;-76
2023/03/11 04:04:29;;;;;;;4.22;2.00;;;-1.10;99.90;;;;;;476989;247;28565;-77
2023/03/11 04:06:30;;;;;;;3.90;2.10;;;-1.10;99.90;;;;;;477025;247;27946;-76
2023/03/11 04:08:31;;;;;;;6.22;2.55;;;-1.10;99.90;;;;;;477063;247;27839;-79
2023/03/11 04:10:33;;;;;;;8.13;2.35;;;-1.10;99.90;;;;;;477052;247;27390;-76
2023/03/11 04:12:34;;;;;;;5.07;2.00;;;-1.10;99.90;;;;;;477015;247;27431;-78
2023/03/11 04:14:35;;;;;;;3.33;2.28;;;-1.10;99.90;;;;;;476986;247;27484;-76
2023/03/11 04:16:36;;;;;;;5.53;2.22;;;-1.10;99.90;;;;;;477023;247;27331;-77
2023/03/11 04:18:38;;;;;;;6.80;2.70;;;-1.10;99.90;;;;;;477039;247;27362;-77
2023/03/11 04:20:39;;;;;;;8.88;2.55;;;-1.10;99.90;;;;;;476977;247;27395;-77
2023/03/11 04:22:40;;;;;;;4.80;2.15;;;-1.10;99.90;;;;;;477003;247;27441;-77
2023/03/11 04:24:42;;;;;;;5.20;2.10;;;-1.10;99.90;;;;;;476911;249;27351;-78
2023/03/11 04:26:43;;;;;;;2.65;2.00;;;-1.10;99.90;;;;;;477018;247;27779;-76
2023/03/11 04:28:44;;;;;;;6.18;3.05;;;-1.20;99.90;;;;;;477019;247;27862;-76
2023/03/11 04:30:45;;;;;;;4.30;2.20;;;-1.20;99.90;;;;;;477007;247;27355;-77
2023/03/11 04:32:47;;;;;;;4.45;2.10;;;-1.30;99.90;;;;;;477005;247;27419;-77
2023/03/11 04:34:48;;;;;;;2.65;2.20;;;-1.30;99.90;;;;;;477018;247;27435;-78
2023/03/11 04:36:49;;;;;;;2.70;2.00;;;-1.30;99.90;;;;;;477039;247;27409;-76
2023/03/11 04:38:50;;;;;;;4.75;2.15;;;-1.30;99.90;;;;;;476991;247;27375;-76
2023/03/11 04:40:52;;;;;;;3.37;2.55;;;-1.20;99.90;;;;;;477044;247;27326;-76
2023/03/11 04:42:53;;;;;;;4.60;2.37;;;-1.20;99.90;;;;;;477039;247;27355;-76
2023/03/11 04:44:54;;;;;;;8.48;2.20;;;-1.30;99.90;;;;;;477033;247;27885;-76
2023/03/11 04:46:55;;;;;;;5.43;2.87;;;-1.30;99.90;;;;;;477012;247;27850;-77
2023/03/11 04:48:57;;;;;;;6.15;2.25;;;-1.40;99.90;;;;;;477004;247;27845;-78
2023/03/11 04:50:58;;;;;;;7.87;2.40;;;-1.40;99.90;;;;;;476935;249;27308;-76
2023/03/11 04:52:59;;;;;;;8.57;2.83;;;-1.40;99.90;;;;;;477039;247;27402;-75
2023/03/11 04:55:00;;;;;;;3.95;2.20;;;-1.40;99.90;;;;;;477051;247;27387;-77
2023/03/11 04:57:02;;;;;;;2.70;1.80;;;-1.40;99.90;;;;;;477019;247;27406;-77
2023/03/11 04:59:03;;;;;;;5.70;2.28;;;-1.50;99.90;;;;;;477021;247;27902;-78
2023/03/11 05:01:05;;;;;;;6.80;2.35;;;-1.50;99.90;;;;;;477050;247;27932;-77
2023/03/11 05:03:06;;;;;;;7.55;2.62;;;-1.50;99.90;;;;;;477017;247;27366;-77
2023/03/11 05:05:07;;;;;;;6.05;2.90;;;-1.60;99.90;;;;;;477004;249;27355;-76
2023/03/11 05:07:08;;;;;;;5.30;2.97;;;-1.70;99.90;;;;;;476965;247;27350;-77
2023/03/11 05:09:10;;;;;;;7.70;3.00;;;-1.70;99.90;;;;;;477044;247;27458;-77
2023/03/11 05:11:11;;;;;;;4.20;2.20;;;-1.70;99.90;;;;;;477049;247;27374;-77
2023/03/11 05:13:12;;;;;;;2.30;2.10;;;-1.70;99.90;;;;;;476999;247;27311;-75
2023/03/11 05:15:13;;;;;;;2.80;2.20;;;-1.70;99.90;;;;;;477005;247;27470;-76
2023/03/11 05:17:17;;;;;;;2.50;2.30;;;-1.60;99.90;;;;;;476888;247;27839;-77
2023/03/11 05:19:33;;;;;;;4.75;2.53;;;-1.60;99.90;;;;;;476698;249;27858;-77
2023/03/11 05:21:32;;;;;;;6.65;2.30;;;-1.60;99.90;;;;;;476931;249;27779;-77
2023/03/11 05:23:34;;;;;;;7.12;2.67;;;-1.70;99.90;;;;;;477015;247;27358;-77
2023/03/11 05:25:35;;;;;;;7.70;2.72;;;-1.80;99.90;;;;;;476962;247;27339;-76
2023/03/11 05:27:36;;;;;;;8.48;2.55;;;-1.80;99.90;;;;;;477019;247;27442;-77
2023/03/11 05:29:37;;;;;;;5.97;2.60;;;-1.80;99.90;;;;;;477013;247;27448;-76
2023/03/11 05:31:39;;;;;;;8.02;2.70;;;-1.70;99.90;;;;;;476993;247;27367;-77
2023/03/11 05:33:40;;;;;;;3.45;2.62;;;-1.80;99.90;;;;;;476977;247;27448;-76
2023/03/11 05:35:42;;;;;;;3.20;2.60;;;-1.80;99.90;;;;;;476987;247;27465;-76
2023/03/11 05:37:42;;;;;;;3.55;2.78;;;-1.80;99.90;;;;;;477023;247;27756;-77
2023/03/11 05:39:44;;;;;;;2.62;2.37;;;-1.90;99.90;;;;;;477005;247;27889;-76
2023/03/11 05:41:45;;;;;;;5.05;2.58;;;-1.90;99.90;;;;;;476979;247;28945;-78
2023/03/11 05:43:46;;;;;;;3.60;2.85;;;-1.90;99.90;;;;;;477023;247;27438;-79
2023/03/11 05:45:47;;;;;;;3.75;2.55;;;-1.90;99.90;;;;;;477022;247;27332;-76
2023/03/11 05:47:49;;;;;;;6.85;3.00;;;-1.90;99.90;;;;;;477014;249;27311;-77
2023/03/11 05:49:50;;;;;;;6.00;2.85;;;-1.80;99.90;;;;;;476998;247;27367;-77
2023/03/11 05:51:53;;;;;;;4.68;2.55;;;-1.80;99.90;;;;;;477049;247;27292;-76
2023/03/11 05:53:52;;;;;;;10.70;3.10;;;-1.80;99.90;;;;;;476816;249;27543;-76
2023/03/11 05:55:54;;;;;;;7.18;2.85;;;-1.80;99.90;;;;;;477031;247;27421;-77
2023/03/11 05:57:55;;;;;;;5.75;2.62;;;-1.80;99.90;;;;;;477010;247;27856;-77
2023/03/11 05:59:56;;;;;;;4.35;2.60;;;-1.90;99.90;;;;;;477029;249;27851;-76
2023/03/11 06:01:57;;;;;;;6.50;2.50;;;-1.80;99.90;;;;;;477023;247;29002;-77
2023/03/11 06:03:59;;;;;;;3.92;2.47;;;-1.80;99.90;;;;;;476931;247;27339;-77
2023/03/11 06:06:00;;;;;;;4.80;2.37;;;-1.80;99.90;;;;;;476935;247;27435;-77
2023/03/11 06:08:01;;;;;;;5.37;2.90;;;-1.80;99.90;;;;;;477049;247;27315;-77
2023/03/11 06:10:02;;;;;;;4.10;2.80;;;-1.70;99.90;;;;;;477038;247;27386;-78
2023/03/11 06:12:04;;;;;;;10.18;2.75;;;-1.70;99.90;;;;;;476877;249;27300;-76
2023/03/11 06:14:05;;;;;;;4.40;2.12;;;-1.70;99.90;;;;;;477036;247;27437;-77
2023/03/11 06:16:06;;;;;;;9.60;3.05;;;-1.70;99.90;;;;;;477083;247;27363;-76
2023/03/11 06:18:07;;;;;;;3.10;2.60;;;-1.70;99.90;;;;;;477026;247;27791;-77
2023/03/11 06:20:09;;;;;;;5.15;2.80;;;-1.80;99.90;;;;;;477043;247;27966;-77
2023/03/11 06:22:10;;;;;;;4.85;2.90;;;-1.90;99.90;;;;;;477019;247;27316;-76
2023/03/11 06:24:11;;;;;;;6.43;3.10;;;-1.90;99.90;;;;;;476796;249;27343;-76
2023/03/11 06:26:12;;;;;;;4.30;2.90;;;-1.90;99.90;;;;;;477027;247;27354;-77
2023/03/11 06:28:14;;;;;;;11.20;3.28;;;-1.80;99.90;;;;;;477031;247;27379;-76
2023/03/11 06:30:15;;;;;;;6.22;2.90;;;-1.80;99.90;;;;;;477019;247;27371;-76
2023/03/11 06:32:16;;;;;;;8.13;3.00;;;-1.70;99.90;;;;;;477013;247;27462;-74
2023/03/11 06:34:17;;;;;;;4.90;3.17;;;-1.70;99.90;;;;;;477019;247;27442;-75
2023/03/11 06:36:19;;;;;;;7.60;3.22;;;-1.70;99.90;;;;;;477024;247;27852;-75
2023/03/11 06:38:20;;;;;;;22.70;11.55;;;-1.60;99.90;;;;;;477037;247;27873;-74
2023/03/11 06:40:21;;;;;;;14.98;8.55;;;-1.70;99.90;;;;;;480193;246;27550;-76
2023/03/11 06:42:25;;;;;;;9.32;5.10;;;-1.70;99.90;;;;;;477000;248;27312;-75
2023/03/11 06:44:26;;;;;;;6.53;5.05;;;-1.70;99.90;;;;;;480172;246;27905;-75
2023/03/11 06:46:28;;;;;;;9.43;5.15;;;-1.70;99.90;;;;;;477000;248;28874;-74
2023/03/11 06:48:29;;;;;;;12.68;5.43;;;-1.70;99.90;;;;;;480206;246;27895;-75
2023/03/11 06:50:30;;;;;;;8.52;4.68;;;-1.70;99.90;;;;;;477033;248;27310;-74
2023/03/11 06:52:31;;;;;;;7.12;3.80;;;-1.70;99.90;;;;;;480254;246;27427;-75
2023/03/11 06:54:33;;;;;;;8.23;5.00;;;-1.70;99.90;;;;;;476893;248;27327;-74
2023/03/11 06:56:34;;;;;;;6.07;4.40;;;-1.70;99.90;;;;;;480223;246;27434;-75
2023/03/11 06:58:35;;;;;;;8.75;4.80;;;-1.60;99.90;;;;;;480242;247;27449;-75
2023/03/11 07:00:37;;;;;;;10.48;4.70;;;-1.70;99.90;;;;;;477020;248;27383;-75
2023/03/11 07:02:38;;;;;;;6.57;4.20;;;-1.70;99.90;;;;;;480164;247;27934;-75
2023/03/11 07:04:39;;;;;;;6.20;4.80;;;-1.60;99.90;;;;;;480175;247;27883;-74
2023/03/11 07:06:40;;;;;;;9.63;5.12;;;-1.60;99.90;;;;;;476993;248;28969;-74
2023/03/11 07:08:41;;;;;;;9.25;4.18;;;-1.50;99.90;;;;;;480212;246;27470;-74
2023/03/11 07:10:43;;;;;;;6.55;3.55;;;-1.50;99.90;;;;;;477006;248;27307;-74
2023/03/11 07:12:44;;;;;;;10.00;3.50;;;-1.50;99.90;;;;;;480200;246;27520;-75
2023/03/11 07:14:45;;;;;;;8.95;3.45;;;-1.40;99.90;;;;;;476999;248;27311;-75
2023/03/11 07:16:47;;;;;;;5.65;3.50;;;-1.40;99.90;;;;;;480197;246;27434;-74
2023/03/11 07:18:48;;;;;;;3.70;3.10;;;-1.40;99.90;;;;;;477024;248;27381;-75
2023/03/11 07:20:49;;;;;;;6.15;2.50;;;-1.30;99.90;;;;;;480215;246;27440;-75
2023/03/11 07:22:50;;;;;;;4.03;2.67;;;-1.30;99.90;;;;;;477010;248;27862;-75
2023/03/11 07:24:52;;;;;;;5.78;3.15;;;-1.30;99.90;;;;;;480159;246;29912;-74
2023/03/11 07:26:53;;;;;;;4.97;2.62;;;-1.20;99.90;;;;;;476953;248;27363;-75
2023/03/11 07:28:54;;;;;;;4.65;2.55;;;-1.10;99.90;;;;;;480185;247;27506;-75
2023/03/11 07:30:55;;;;;;;5.12;2.58;;;-1.00;99.90;;;;;;476985;248;27367;-75
2023/03/11 07:32:57;;;;;;;3.92;2.70;;;-1.00;99.90;;;;;;480193;246;27443;-76
2023/03/11 07:34:58;;;;;;;5.90;2.45;;;-0.90;99.90;;;;;;476985;248;27393;-75
2023/03/11 07:36:59;;;;;;;5.22;2.53;;;-0.90;99.90;;;;;;480095;247;27543;-74
2023/03/11 07:39:02;;;;;;;8.98;2.60;;;-0.80;99.90;;;;;;477040;248;27440;-74
2023/03/11 07:41:02;;;;;;;5.43;2.50;;;-0.80;99.90;;;;;;480044;246;27384;-74
2023/03/11 07:43:03;;;;;;;6.12;2.30;;;-0.70;99.90;;;;;;477005;248;27859;-74
2023/03/11 07:45:04;;;;;;;8.15;2.70;;;-0.70;99.90;;;;;;480195;247;29730;-75
2023/03/11 07:47:05;;;;;;;12.18;2.97;;;-0.60;99.90;;;;;;476988;248;27403;-75
2023/03/11 07:49:07;;;;;;;6.68;2.33;;;-0.60;99.90;;;;;;480218;246;27516;-75
2023/03/11 07:51:08;;;;;;;4.97;2.60;;;-0.50;99.90;;;;;;477043;248;27312;-75
2023/03/11 07:53:09;;;;;;;4.10;2.30;;;-0.40;99.90;;;;;;480229;246;27513;-75
2023/03/11 07:55:10;;;;;;;4.78;2.25;;;-0.40;99.90;;;;;;477030;248;27331;-75
2023/03/11 07:57:15;;;;;;;6.95;2.55;;;-0.40;99.90;;;;;;480165;246;27466;-74
2023/03/11 07:59:13;;;;;;;4.82;2.60;;;-0.30;99.90;;;;;;476798;249;27367;-77
2023/03/11 08:01:15;;;;;;;2.67;2.08;;;-0.30;99.90;;;;;;480248;242;27863;-76
2023/03/11 08:03:15;;;;;;;3.80;2.28;;;-0.30;99.90;;;;;;480219;247;27942;-75
2023/03/11 08:05:19;;;;;;;9.55;2.62;;;-0.30;99.90;;;;;;477018;248;27941;-74
2023/03/11 08:07:19;;;;;;;2.95;2.35;;;-0.20;99.90;;;;;;479975;247;27430;-75
2023/03/11 08:09:19;;;;;;;9.80;2.40;;;-0.20;99.90;;;;;;480098;247;27541;-75
2023/03/11 08:11:21;;;;;;;6.12;2.72;;;-0.10;99.90;;;;;;480230;247;27468;-75
2023/03/11 08:13:22;;;;;;;7.22;2.42;;;-0.10;99.90;;;;;;477015;248;27351;-76
2023/03/11 08:15:23;;;;;;;5.32;2.50;;;0.00;99.90;;;;;;480194;246;27397;-74
2023/03/11 08:17:24;;;;;;;7.18;2.10;;;0.00;99.90;;;;;;477006;248;27387;-75
2023/03/11 08:19:25;;;;;;;7.43;2.85;;;0.00;99.90;;;;;;480223;246;27477;-75
2023/03/11 08:21:27;;;;;;;13.75;2.65;;;0.10;99.90;;;;;;477027;248;27378;-74
2023/03/11 08:23:28;;;;;;;5.53;2.10;;;0.10;99.90;;;;;;480115;247;28056;-74
2023/03/11 08:25:29;;;;;;;3.33;2.08;;;0.10;99.90;;;;;;477018;248;28588;-75
2023/03/11 08:27:30;;;;;;;3.97;2.35;;;0.10;99.90;;;;;;480248;246;27895;-75
2023/03/11 08:29:32;;;;;;;7.47;2.60;;;0.10;99.90;;;;;;477013;248;27877;-74
2023/03/11 08:31:33;;;;;;;4.20;2.25;;;0.10;99.90;;;;;;480205;246;27382;-75
2023/03/11 08:33:34;;;;;;;8.30;2.50;;;0.20;99.90;;;;;;477001;248;27463;-74
2023/03/11 08:35:36;;;;;;;9.52;2.20;;;0.30;99.90;;;;;;480178;246;27415;-73
2023/03/11 08:37:37;;;;;;;11.75;2.50;;;0.30;99.90;;;;;;477045;249;27358;-76
2023/03/11 08:39:38;;;;;;;5.62;2.33;;;0.30;99.90;;;;;;480224;246;27514;-75
2023/03/11 08:41:39;;;;;;;7.53;2.10;;;0.30;99.90;;;;;;476987;248;27323;-74
2023/03/11 08:43:41;;;;;;;7.62;2.70;;;0.40;99.90;;;;;;480225;246;27441;-73
2023/03/11 08:45:42;;;;;;;8.32;2.97;;;0.40;99.90;;;;;;476874;248;27367;-75
2023/03/11 08:47:43;;;;;;;7.57;2.42;;;0.60;99.90;;;;;;480224;246;27401;-75
2023/03/11 08:49:44;;;;;;;8.15;2.70;;;0.60;99.90;;;;;;477051;248;27861;-74
2023/03/11 08:51:45;;;;;;;8.15;2.33;;;0.60;99.90;;;;;;480214;246;27958;-75
2023/03/11 08:53:47;;;;;;;3.80;2.00;;;0.70;99.90;;;;;;476982;248;27863;-75
2023/03/11 08:55:48;;;;;;;2.60;2.05;;;0.80;99.90;;;;;;480207;246;28707;-75
2023/03/11 08:57:49;;;;;;;10.60;2.50;;;0.80;99.90;;;;;;477065;248;27421;-74
2023/03/11 08:59:50;;;;;;;4.87;2.25;;;0.80;99.90;;;;;;480209;246;27467;-76
2023/03/11 09:01:52;;;;;;;7.72;2.17;;;0.90;99.90;;;;;;477015;248;27391;-77
2023/03/11 09:03:53;;;;;;;3.87;2.22;;;1.20;99.90;;;;;;480212;246;27513;-75
2023/03/11 09:05:54;;;;;;;6.28;2.20;;;1.20;99.90;;;;;;477016;248;27359;-74
2023/03/11 09:07:55;;;;;;;5.32;1.90;;;1.20;99.90;;;;;;480200;246;27391;-76
2023/03/11 09:09:57;;;;;;;4.62;2.25;;;1.30;99.90;;;;;;477029;248;27379;-74
2023/03/11 09:11:58;;;;;;;5.20;1.85;;;1.40;99.90;;;;;;480206;246;27419;-74
2023/03/11 09:13:59;;;;;;;4.85;1.60;;;1.40;99.90;;;;;;477024;248;27351;-75
2023/03/11 09:16:01;;;;;;;2.35;1.60;;;1.50;97.10;;;;;;480239;246;27462;-75
2023/03/11 09:18:02;;;;;;;6.68;1.95;;;1.50;94.20;;;;;;477061;248;27769;-74
2023/03/11 09:20:03;;;;;;;3.83;2.10;;;1.40;95.10;;;;;;480250;246;28005;-75
2023/03/11 09:22:04;;;;;;;5.00;2.40;;;1.50;94.90;;;;;;477047;248;27782;-74
2023/03/11 09:24:05;;;;;;;6.85;2.92;;;1.50;96.70;;;;;;480181;246;28009;-74
2023/03/11 09:26:07;;;;;;;5.75;3.12;;;1.30;98.50;;;;;;477022;248;27734;-73
2023/03/11 09:28:08;;;;;;;7.50;2.70;;;1.30;96.50;;;;;;480228;246;27409;-74
2023/03/11 09:30:09;;;;;;;5.03;1.70;;;1.40;94.50;;;;;;477051;248;27446;-76
2023/03/11 09:32:10;;;;;;;5.72;1.75;;;1.30;93.60;;;;;;480203;247;27501;-74
2023/03/11 09:34:12;;;;;;;8.68;1.90;;;1.20;95.30;;;;;;477024;248;27431;-75
2023/03/11 09:36:13;;;;;;;3.60;1.65;;;1.30;94.30;;;;;;480189;246;27403;-74
2023/03/11 09:38:14;;;;;;;2.40;1.65;;;1.50;91.10;;;;;;476944;248;27379;-73
2023/03/11 09:40:15;;;;;;;3.62;1.80;;;1.60;90.60;;;;;;480144;246;27443;-74
2023/03/11 09:42:17;;;;;;;8.10;1.73;;;1.60;93.00;;;;;;477034;248;27371;-74
2023/03/11 09:44:18;;;;;;;6.30;1.85;;;1.40;91.60;;;;;;480163;246;27442;-73
2023/03/11 09:46:19;;;;;;;2.08;1.40;;;1.40;88.90;;;;;;477040;248;27831;-73
2023/03/11 09:48:20;;;;;;;4.68;1.60;;;1.60;88.70;;;;;;480181;246;28022;-74
2023/03/11 09:50:22;;;;;;;3.05;1.70;;;1.80;86.40;;;;;;477073;248;27841;-75
2023/03/11 09:52:23;;;;;;;3.30;1.75;;;1.90;87.60;;;;;;480191;247;27942;-75
2023/03/11 09:54:24;;;;;;;7.85;1.77;;;2.00;86.50;;;;;;476913;249;27340;-73
2023/03/11 09:56:25;;;;;;;4.32;2.00;;;1.90;82.30;;;;;;480201;246;27471;-75
2023/03/11 09:58:27;;;;;;;2.42;1.30;;;1.40;78.20;;;;;;477020;248;27445;-75
2023/03/11 10:00:28;;;;;;;2.12;1.37;;;1.50;79.60;;;;;;480231;246;27439;-75
2023/03/11 10:02:29;;;;;;;2.92;1.70;;;1.80;80.80;;;;;;480188;247;27387;-73
2023/03/11 10:04:30;;;;;;;2.85;1.77;;;1.90;81.60;;;;;;476997;248;27418;-74
2023/03/11 10:06:32;;;;;;;10.38;1.87;;;2.10;84.10;;;;;;479953;247;27396;-75
2023/03/11 10:08:33;;;;;;;1.77;1.60;;;2.00;82.60;;;;;;480201;247;27412;-73
2023/03/11 10:10:34;;;;;;;4.43;1.60;;;2.20;82.50;;;;;;477022;248;27363;-73
2023/03/11 10:12:35;;;;;;;3.92;1.62;;;2.40;79.50;;;;;;480210;246;27487;-74
2023/03/11 10:14:38;;;;;;;2.47;1.77;;;2.60;78.40;;;;;;477033;248;27853;-74
2023/03/11 10:16:38;;;;;;;3.45;1.95;;;2.70;82.40;;;;;;480102;247;28796;-73
2023/03/11 10:18:39;;;;;;;7.07;2.00;;;2.80;85.20;;;;;;480197;247;27852;-74
2023/03/11 10:20:40;;;;;;;2.95;2.10;;;3.00;87.60;;;;;;477008;249;27359;-75
2023/03/11 10:22:42;;;;;;;6.43;2.50;;;3.20;90.90;;;;;;479992;247;27372;-74
2023/03/11 10:24:44;;;;;;;3.97;2.03;;;3.50;89.10;;;;;;477006;248;27439;-75
2023/03/11 10:26:44;;;;;;;5.18;1.85;;;3.40;81.00;;;;;;480019;247;27474;-74
2023/03/11 10:28:45;;;;;;;5.72;1.60;;;3.20;80.00;;;;;;480210;247;27407;-75
2023/03/11 10:30:47;;;;;;;4.25;1.65;;;3.10;80.70;;;;;;477023;248;27472;-74
2023/03/11 10:32:48;;;;;;;5.75;1.77;;;3.00;80.00;;;;;;480192;246;27541;-75
2023/03/11 10:34:49;;;;;;;3.15;1.65;;;2.80;80.50;;;;;;477016;248;27406;-74